createdAt,value
2022-10-19T00:00:46.109Z,5.37
2022-10-19T00:03:12.720Z,5.47
2022-10-19T00:05:39.388Z,5.63
2022-10-19T00:08:06.113Z,4.68
2022-10-19T00:10:32.649Z,4.80
2022-10-19T00:13:00.981Z,5.63
2022-10-19T00:15:27.602Z,5.25
2022-10-19T00:17:54.140Z,5.28
2022-10-19T00:20:20.643Z,5.90
2022-10-19T00:22:49.762Z,5.47
2022-10-19T00:25:16.602Z,5.10
2022-10-19T00:27:43.102Z,5.85
2022-10-19T00:30:11.435Z,6.00
2022-10-19T00:32:37.940Z,6.43
2022-10-19T00:35:05.166Z,5.90
2022-10-19T00:37:31.688Z,6.47
2022-10-19T00:39:58.229Z,6.50
2022-10-19T00:42:24.766Z,7.18
2022-10-19T00:45:01.225Z,6.68
2022-10-19T00:47:29.477Z,6.80
2022-10-19T00:49:57.693Z,5.40
2022-10-19T00:52:24.905Z,5.82
2022-10-19T00:54:53.701Z,5.78
2022-10-19T00:57:21.400Z,5.50
2022-10-19T00:59:48.081Z,6.07
2022-10-19T01:02:14.727Z,6.07
2022-10-19T01:04:48.552Z,5.78
2022-10-19T01:07:15.535Z,5.88
2022-10-19T01:09:42.080Z,5.03
2022-10-19T01:12:20.022Z,6.13
2022-10-19T01:14:59.391Z,5.97
2022-10-19T01:17:41.435Z,5.70
2022-10-19T01:20:32.927Z,5.95
2022-10-19T01:23:29.539Z,5.93
2022-10-19T01:26:07.083Z,6.38
2022-10-19T01:28:46.073Z,5.77
2022-10-19T01:31:21.126Z,6.05
2022-10-19T01:33:54.960Z,6.80
2022-10-19T01:36:26.053Z,6.90
2022-10-19T01:38:59.702Z,5.78
2022-10-19T01:41:33.051Z,6.30
2022-10-19T01:44:07.321Z,5.00
2022-10-19T01:46:38.766Z,6.00
2022-10-19T01:49:11.259Z,5.68
2022-10-19T01:51:42.324Z,6.18
2022-10-19T01:54:13.340Z,5.90
2022-10-19T01:56:42.340Z,6.10
2022-10-19T01:59:11.574Z,6.40
2022-10-19T02:01:43.464Z,5.22
2022-10-19T02:04:11.163Z,5.53
2022-10-19T02:06:39.328Z,5.43
2022-10-19T02:09:05.967Z,5.50
2022-10-19T02:11:33.842Z,6.03
2022-10-19T02:14:09.472Z,4.88
2022-10-19T02:16:41.136Z,5.18
2022-10-19T02:19:09.772Z,4.13
2022-10-19T02:21:36.531Z,4.80
2022-10-19T02:24:03.285Z,4.30
2022-10-19T02:26:29.904Z,4.65
2022-10-19T02:28:57.059Z,4.63
2022-10-19T02:31:24.515Z,4.50
2022-10-19T02:33:53.250Z,4.68
2022-10-19T02:36:20.245Z,5.15
2022-10-19T02:38:46.904Z,4.65
2022-10-19T02:41:17.967Z,4.63
2022-10-19T02:43:49.244Z,5.13
2022-10-19T02:46:22.959Z,4.70
2022-10-19T02:48:53.084Z,4.93
2022-10-19T02:51:31.168Z,4.60
2022-10-19T02:53:59.937Z,5.35
2022-10-19T02:56:29.209Z,4.17
2022-10-19T02:58:55.737Z,4.72
2022-10-19T03:01:22.299Z,4.75
2022-10-19T03:03:48.831Z,3.97
2022-10-19T03:06:16.782Z,4.30
2022-10-19T03:08:43.563Z,3.70
2022-10-19T03:11:10.659Z,4.05
2022-10-19T03:13:37.313Z,4.57
2022-10-19T03:16:08.315Z,3.88
2022-10-19T03:18:34.872Z,3.88
2022-10-19T03:21:02.772Z,3.70
2022-10-19T03:23:30.958Z,4.07
2022-10-19T03:25:57.508Z,4.43
2022-10-19T03:28:24.029Z,3.90
2022-10-19T03:30:50.534Z,4.22
2022-10-19T03:33:17.105Z,4.23
2022-10-19T03:35:43.633Z,4.13
2022-10-19T03:38:10.174Z,4.50
2022-10-19T03:40:39.681Z,3.60
2022-10-19T03:43:06.357Z,4.25
2022-10-19T03:45:33.177Z,3.97
2022-10-19T03:47:59.689Z,4.40
2022-10-19T03:50:26.196Z,4.45
2022-10-19T03:52:52.747Z,3.95
2022-10-19T03:55:19.449Z,5.00
2022-10-19T03:57:47.309Z,4.60
2022-10-19T04:00:14.671Z,4.68
2022-10-19T04:02:41.434Z,4.85
2022-10-19T04:05:08.396Z,4.57
2022-10-19T04:07:35.154Z,3.90
2022-10-19T04:10:02.102Z,4.00
2022-10-19T04:12:28.624Z,4.35
2022-10-19T04:14:57.811Z,5.05
2022-10-19T04:17:25.451Z,4.68
2022-10-19T04:19:51.994Z,5.25
2022-10-19T04:22:18.525Z,4.87
2022-10-19T04:24:45.051Z,4.50
2022-10-19T04:27:11.588Z,5.30
2022-10-19T04:29:38.243Z,4.82
2022-10-19T04:32:06.501Z,5.57
2022-10-19T04:34:35.253Z,5.33
2022-10-19T04:37:04.287Z,5.70
2022-10-19T04:39:30.780Z,5.50
2022-10-19T04:41:57.393Z,5.28
2022-10-19T04:46:55.427Z,5.17
2022-10-19T04:49:23.289Z,5.47
2022-10-19T04:51:49.793Z,6.40
2022-10-19T04:54:16.300Z,5.53
2022-10-19T04:56:42.913Z,5.72
2022-10-19T04:59:10.199Z,5.17
2022-10-19T05:01:37.220Z,5.05
2022-10-19T05:04:04.022Z,5.55
2022-10-19T05:06:32.064Z,5.13
2022-10-19T05:08:58.915Z,5.57
2022-10-19T05:11:26.181Z,5.23
2022-10-19T05:13:52.807Z,5.22
2022-10-19T05:16:21.137Z,5.20
2022-10-19T05:18:48.611Z,5.20
2022-10-19T05:21:15.918Z,5.20
2022-10-19T05:23:44.173Z,5.17
2022-10-19T05:26:12.479Z,4.78
2022-10-19T05:28:39.389Z,5.00
2022-10-19T05:31:08.503Z,5.03
2022-10-19T05:33:35.487Z,4.53
2022-10-19T05:36:11.061Z,4.80
2022-10-19T05:38:37.678Z,4.97
2022-10-19T05:41:06.212Z,4.88
2022-10-19T05:43:32.731Z,4.97
2022-10-19T05:46:03.787Z,4.97
2022-10-19T05:48:30.528Z,4.60
2022-10-19T05:50:57.058Z,4.47
2022-10-19T05:53:23.762Z,4.75
2022-10-19T05:55:50.256Z,4.63
2022-10-19T05:58:18.148Z,5.00
2022-10-19T06:00:51.228Z,5.30
2022-10-19T06:03:17.746Z,5.53
2022-10-19T06:05:44.273Z,6.75
2022-10-19T06:08:10.795Z,5.75
2022-10-19T06:10:37.413Z,5.82
2022-10-19T06:13:03.955Z,5.57
2022-10-19T06:15:34.621Z,6.28
2022-10-19T06:18:01.131Z,5.80
2022-10-19T06:20:27.728Z,6.13
2022-10-19T06:22:54.295Z,6.57
2022-10-19T06:25:20.922Z,5.10
2022-10-19T06:27:47.716Z,5.97
2022-10-19T06:30:14.318Z,5.70
2022-10-19T06:32:42.288Z,5.50
2022-10-19T06:35:08.943Z,5.78
2022-10-19T06:37:35.747Z,5.60
2022-10-19T06:40:06.188Z,5.55
2022-10-19T06:42:34.180Z,5.82
2022-10-19T06:45:00.774Z,5.72
2022-10-19T06:47:27.285Z,5.32
2022-10-19T06:49:55.121Z,5.37
2022-10-19T06:52:21.649Z,5.25
2022-10-19T06:54:48.223Z,5.72
2022-10-19T06:57:14.752Z,5.70
2022-10-19T06:59:41.256Z,5.75
2022-10-19T07:02:07.906Z,5.60
2022-10-19T07:04:34.451Z,4.97
2022-10-19T07:07:02.564Z,5.82
2022-10-19T07:09:29.230Z,5.82
2022-10-19T07:11:55.871Z,5.25
2022-10-19T07:14:22.543Z,4.73
2022-10-19T07:16:49.635Z,5.32
2022-10-19T07:19:16.298Z,4.85
2022-10-19T07:21:42.837Z,5.07
2022-10-19T07:24:11.200Z,5.38
2022-10-19T07:26:38.268Z,4.97
2022-10-19T07:29:04.941Z,5.43
2022-10-19T07:31:32.723Z,4.93
2022-10-19T07:34:01.246Z,5.13
2022-10-19T07:36:29.148Z,4.72
2022-10-19T07:38:55.725Z,5.60
2022-10-19T07:41:25.188Z,4.97
2022-10-19T07:43:52.209Z,4.85
2022-10-19T07:46:20.684Z,4.70
2022-10-19T07:48:47.407Z,5.72
2022-10-19T07:51:16.194Z,5.60
2022-10-19T07:53:43.350Z,4.60
2022-10-19T07:56:11.458Z,3.83
2022-10-19T07:58:40.388Z,4.20
2022-10-19T08:01:08.928Z,4.18
2022-10-19T08:06:23.168Z,3.85
2022-10-19T08:08:51.451Z,4.22
2022-10-19T08:11:20.687Z,4.25
2022-10-19T08:13:49.149Z,4.55
2022-10-19T08:16:25.047Z,4.03
2022-10-19T08:18:52.794Z,4.93
2022-10-19T08:21:19.476Z,4.43
2022-10-19T08:23:46.120Z,4.10
2022-10-19T08:26:12.726Z,3.95
2022-10-19T08:28:39.498Z,4.17
2022-10-19T08:31:12.353Z,4.20
2022-10-19T08:33:39.528Z,4.10
2022-10-19T08:36:06.770Z,4.00
2022-10-19T08:38:35.725Z,4.20
2022-10-19T08:41:11.503Z,4.27
2022-10-19T08:43:48.274Z,4.50
2022-10-19T08:46:24.239Z,4.43
2022-10-19T08:48:52.075Z,3.90
2022-10-19T08:51:18.634Z,4.30
2022-10-19T08:53:53.311Z,3.87
2022-10-19T08:56:49.922Z,3.58
2022-10-19T08:59:30.336Z,4.07
2022-10-19T09:02:01.491Z,3.63
2022-10-19T09:04:32.915Z,3.30
2022-10-19T09:07:17.772Z,2.97
2022-10-19T09:09:48.781Z,2.83
2022-10-19T09:12:19.771Z,2.05
2022-10-19T09:14:54.130Z,2.30
2022-10-19T09:17:22.191Z,1.83
2022-10-19T09:19:48.732Z,1.70
2022-10-19T09:22:20.034Z,1.70
2022-10-19T09:24:50.499Z,1.60
2022-10-19T09:27:21.138Z,1.30
2022-10-19T09:29:53.285Z,1.70
2022-10-19T09:32:25.492Z,1.40
2022-10-19T09:34:54.914Z,1.40
2022-10-19T09:37:26.359Z,1.85
2022-10-19T09:39:55.050Z,1.20
2022-10-19T09:42:26.147Z,1.45
2022-10-19T09:44:54.899Z,1.40
2022-10-19T09:47:33.506Z,1.02
2022-10-19T09:50:17.452Z,1.75
2022-10-19T09:52:45.343Z,1.20
2022-10-19T09:55:26.389Z,1.15
2022-10-19T09:58:00.436Z,0.80
2022-10-19T10:00:33.918Z,1.10
2022-10-19T10:03:02.091Z,1.25
2022-10-19T10:05:34.091Z,1.02
2022-10-19T10:08:01.106Z,1.10
2022-10-19T10:10:30.647Z,1.00
2022-10-19T10:12:58.330Z,1.00
2022-10-19T10:15:27.661Z,0.90
2022-10-19T10:17:56.780Z,1.05
2022-10-19T10:20:27.114Z,1.17
2022-10-19T10:22:56.217Z,0.97
2022-10-19T10:25:26.693Z,1.38
2022-10-19T10:27:59.393Z,0.85
2022-10-19T10:30:29.060Z,1.00
2022-10-19T10:33:00.353Z,1.13
2022-10-19T10:35:36.618Z,1.00
2022-10-19T10:38:09.740Z,1.10
2022-10-19T10:40:37.931Z,1.30
2022-10-19T10:43:07.855Z,1.00
2022-10-19T10:45:39.638Z,1.08
2022-10-19T10:48:17.108Z,1.10
2022-10-19T10:50:45.289Z,1.23
2022-10-19T10:53:37.256Z,0.93
2022-10-19T10:56:05.781Z,1.05
2022-10-19T10:58:38.842Z,1.10
2022-10-19T11:01:13.500Z,1.50
2022-10-19T11:03:49.642Z,1.10
2022-10-19T11:06:21.565Z,1.30
2022-10-19T11:08:53.747Z,1.20
2022-10-19T11:11:24.949Z,1.10
2022-10-19T11:14:00.071Z,1.50
2022-10-19T11:16:31.318Z,1.35
2022-10-19T11:19:07.163Z,1.50
2022-10-19T11:21:41.711Z,1.40
2022-10-19T11:24:17.445Z,1.40
2022-10-19T11:26:58.976Z,1.50
2022-10-19T11:29:38.063Z,1.67
2022-10-19T11:32:14.676Z,1.70
2022-10-19T11:34:58.255Z,1.70
2022-10-19T11:37:30.602Z,1.80
2022-10-19T11:40:11.594Z,1.60
2022-10-19T11:42:52.147Z,1.83
2022-10-19T11:45:28.363Z,2.00
2022-10-19T11:48:17.721Z,2.33
2022-10-19T11:50:54.286Z,1.70
2022-10-19T11:53:34.939Z,1.73
2022-10-19T11:56:08.165Z,1.52
2022-10-19T11:58:46.927Z,1.70
2022-10-19T12:01:28.390Z,1.90
2022-10-19T12:04:23.463Z,1.60
2022-10-19T12:07:01.575Z,1.27
2022-10-19T12:09:43.077Z,1.60
2022-10-19T12:12:26.897Z,1.10
2022-10-19T12:15:05.218Z,1.20
2022-10-19T12:17:36.786Z,1.40
2022-10-19T12:20:08.182Z,1.20
2022-10-19T12:22:36.810Z,1.60
2022-10-19T12:25:06.076Z,1.50
2022-10-19T12:27:34.954Z,1.38
2022-10-19T12:30:07.513Z,1.50
2022-10-19T12:32:50.664Z,1.53
2022-10-19T12:35:35.032Z,1.60
2022-10-19T12:38:06.772Z,1.73
2022-10-19T12:40:38.675Z,1.70
2022-10-19T12:43:13.763Z,1.33
2022-10-19T12:45:43.734Z,1.83
2022-10-19T12:48:22.510Z,1.50
2022-10-19T12:50:59.974Z,1.30
2022-10-19T12:53:29.228Z,1.77
2022-10-19T12:56:02.268Z,2.03
2022-10-19T12:58:34.534Z,1.93
2022-10-19T13:01:04.473Z,1.80
2022-10-19T13:03:33.719Z,1.67
2022-10-19T13:06:03.017Z,1.92
2022-10-19T13:08:32.615Z,1.80
2022-10-19T13:11:09.661Z,1.70
2022-10-19T13:14:00.187Z,2.08
2022-10-19T13:16:55.192Z,2.05
2022-10-19T13:19:22.694Z,1.75
2022-10-19T13:22:05.842Z,1.90
2022-10-19T13:24:35.341Z,1.70
2022-10-19T13:27:27.863Z,1.90
2022-10-19T13:29:54.829Z,1.95
2022-10-19T13:32:39.260Z,2.00
2022-10-19T13:35:26.750Z,2.00
2022-10-19T13:38:24.544Z,1.73
2022-10-19T13:41:04.251Z,1.88
2022-10-19T13:43:35.088Z,1.35
2022-10-19T13:46:21.724Z,1.77
2022-10-19T13:49:22.937Z,1.90
2022-10-19T13:52:05.177Z,2.00
2022-10-19T13:54:47.191Z,1.90
2022-10-19T13:57:20.633Z,1.60
2022-10-19T14:00:11.427Z,1.63
2022-10-19T14:03:00.945Z,1.83
2022-10-19T14:05:54.394Z,1.77
2022-10-19T14:08:41.721Z,1.77
2022-10-19T14:11:14.273Z,1.50
2022-10-19T14:13:40.880Z,1.67
2022-10-19T14:16:18.779Z,2.20
2022-10-19T14:18:53.846Z,1.80
2022-10-19T14:21:30.139Z,1.58
2022-10-19T14:23:56.849Z,1.73
2022-10-19T14:26:26.460Z,1.90
2022-10-19T14:28:54.024Z,1.90
2022-10-19T14:31:24.998Z,1.80
2022-10-19T14:33:53.597Z,2.10
2022-10-19T14:36:22.520Z,2.08
2022-10-19T14:38:52.948Z,2.00
2022-10-19T14:41:21.750Z,2.70
2022-10-19T14:43:48.322Z,1.90
2022-10-19T14:46:16.000Z,2.20
2022-10-19T14:48:46.261Z,2.17
2022-10-19T14:51:28.489Z,1.90
2022-10-19T14:53:59.220Z,2.00
2022-10-19T14:56:32.934Z,2.67
2022-10-19T14:59:02.789Z,2.10
2022-10-19T15:01:30.060Z,2.22
2022-10-19T15:03:58.162Z,2.00
2022-10-19T15:06:28.565Z,2.00
2022-10-19T15:08:57.804Z,1.70
2022-10-19T15:11:28.432Z,1.80
2022-10-19T15:13:58.784Z,2.50
2022-10-19T15:16:31.231Z,1.98
2022-10-19T15:19:02.796Z,2.10
2022-10-19T15:21:31.531Z,2.03
2022-10-19T15:24:08.624Z,2.33
2022-10-19T15:26:35.151Z,2.30
2022-10-19T15:29:09.388Z,2.22
2022-10-19T15:31:36.051Z,2.35
2022-10-19T15:34:04.699Z,2.50
2022-10-19T15:36:32.244Z,2.03
2022-10-19T15:39:18.461Z,2.47
2022-10-19T15:41:50.902Z,2.38
2022-10-19T15:44:32.362Z,2.45
2022-10-19T15:47:20.923Z,2.10
2022-10-19T15:49:59.986Z,2.50
2022-10-19T15:52:27.983Z,2.20
2022-10-19T15:54:56.861Z,2.10
2022-10-19T15:57:32.185Z,2.30
2022-10-19T16:00:00.606Z,2.33
2022-10-19T16:02:27.124Z,2.40
2022-10-19T16:04:54.444Z,2.38
2022-10-19T16:07:26.151Z,2.50
2022-10-19T16:09:53.013Z,2.30
2022-10-19T16:12:19.576Z,2.57
2022-10-19T16:14:46.225Z,2.40
2022-10-19T16:17:13.619Z,2.53
2022-10-19T16:19:40.445Z,2.35
2022-10-19T16:22:07.060Z,2.40
2022-10-19T16:24:35.120Z,2.87
2022-10-19T16:27:01.611Z,2.25
2022-10-19T16:29:29.072Z,2.78
2022-10-19T16:31:55.720Z,2.72
2022-10-19T16:34:22.219Z,2.60
2022-10-19T16:36:48.822Z,3.00
2022-10-19T16:39:15.332Z,3.70
2022-10-19T16:41:44.081Z,3.72
2022-10-19T16:44:11.464Z,4.10
2022-10-19T16:46:38.673Z,3.85
2022-10-19T16:49:05.190Z,3.23
2022-10-19T16:51:35.261Z,3.42
2022-10-19T16:54:02.578Z,3.15
2022-10-19T16:56:30.126Z,3.40
2022-10-19T16:58:59.945Z,3.53
2022-10-19T17:01:27.551Z,3.00
2022-10-19T17:03:54.861Z,3.08
2022-10-19T17:06:22.317Z,2.80
2022-10-19T17:11:37.176Z,3.20
2022-10-19T17:14:06.854Z,3.13
2022-10-19T17:16:35.647Z,3.47
2022-10-19T17:19:03.475Z,3.80
2022-10-19T17:21:32.290Z,3.08
2022-10-19T17:24:00.534Z,3.55
2022-10-19T17:26:28.103Z,3.30
2022-10-19T17:28:55.544Z,3.20
2022-10-19T17:31:23.744Z,3.75
2022-10-19T17:33:50.715Z,3.50
2022-10-19T17:36:19.887Z,3.55
2022-10-19T17:38:46.754Z,3.20
2022-10-19T17:41:14.934Z,3.20
2022-10-19T17:43:43.132Z,3.25
2022-10-19T17:46:11.700Z,3.55
2022-10-19T17:48:40.931Z,3.50
2022-10-19T17:51:10.784Z,3.60
2022-10-19T17:53:37.439Z,2.95
2022-10-19T17:56:05.944Z,2.63
2022-10-19T17:58:36.422Z,3.22
2022-10-19T18:01:07.112Z,2.40
2022-10-19T18:03:34.403Z,2.50
2022-10-19T18:06:08.164Z,2.72
2022-10-19T18:08:39.056Z,3.00
2022-10-19T18:11:07.647Z,2.47
2022-10-19T18:13:35.066Z,2.30
2022-10-19T18:16:03.009Z,2.20
2022-10-19T18:18:31.521Z,2.13
2022-10-19T18:20:58.442Z,2.55
2022-10-19T18:23:26.337Z,2.70
2022-10-19T18:25:54.213Z,2.42
2022-10-19T18:28:21.484Z,1.97
2022-10-19T18:30:48.028Z,1.90
2022-10-19T18:33:14.524Z,2.00
2022-10-19T18:35:41.339Z,2.30
2022-10-19T18:38:07.990Z,2.20
2022-10-19T18:40:37.119Z,1.97
2022-10-19T18:43:04.220Z,2.50
2022-10-19T18:45:31.192Z,1.90
2022-10-19T18:47:57.845Z,2.05
2022-10-19T18:50:24.496Z,2.00
2022-10-19T18:52:51.231Z,2.23
2022-10-19T18:55:18.089Z,3.00
2022-10-19T18:57:45.936Z,2.80
2022-10-19T19:00:13.610Z,2.58
2022-10-19T19:02:46.697Z,2.00
2022-10-19T19:05:13.749Z,2.07
2022-10-19T19:07:40.251Z,2.00
2022-10-19T19:10:07.575Z,2.53
2022-10-19T19:12:34.374Z,2.40
2022-10-19T19:15:02.691Z,2.15
2022-10-19T19:17:29.206Z,2.20
2022-10-19T19:19:55.806Z,2.00
2022-10-19T19:22:22.383Z,2.05
2022-10-19T19:24:49.670Z,2.13
2022-10-19T19:27:16.361Z,2.85
2022-10-19T19:29:43.060Z,2.00
2022-10-19T19:32:10.898Z,2.08
2022-10-19T19:34:37.549Z,2.17
2022-10-19T19:37:07.397Z,2.25
2022-10-19T19:39:37.839Z,2.10
2022-10-19T19:42:04.418Z,2.03
2022-10-19T19:44:31.419Z,2.30
2022-10-19T19:46:58.542Z,2.38
2022-10-19T19:49:27.232Z,2.30
2022-10-19T19:51:54.544Z,2.10
2022-10-19T19:54:21.791Z,1.97
2022-10-19T19:56:50.069Z,1.95
2022-10-19T19:59:16.911Z,2.10
2022-10-19T20:01:43.645Z,1.92
2022-10-19T20:04:10.929Z,2.10
2022-10-19T20:06:39.890Z,2.20
2022-10-19T20:09:07.804Z,2.05
2022-10-19T20:11:37.153Z,2.50
2022-10-19T20:14:06.483Z,2.40
2022-10-19T20:16:33.043Z,2.20
2022-10-19T20:19:01.706Z,2.13
2022-10-19T20:21:28.587Z,2.20
2022-10-19T20:23:56.495Z,2.00
2022-10-19T20:26:24.886Z,2.30
2022-10-19T20:28:52.183Z,2.17
2022-10-19T20:31:19.412Z,2.13
2022-10-19T20:33:46.622Z,2.47
2022-10-19T20:36:14.785Z,2.20
2022-10-19T20:38:46.591Z,2.10
2022-10-19T20:41:14.462Z,2.00
2022-10-19T20:43:40.970Z,2.07
2022-10-19T20:46:11.222Z,2.05
2022-10-19T20:48:38.024Z,2.30
2022-10-19T20:51:11.966Z,2.00
2022-10-19T20:53:38.954Z,2.47
2022-10-19T20:56:07.059Z,2.20
2022-10-19T20:58:34.958Z,2.30
2022-10-19T21:01:06.312Z,2.67
2022-10-19T21:03:32.812Z,2.10
2022-10-19T21:06:01.921Z,2.28
2022-10-19T21:08:28.774Z,2.50
2022-10-19T21:10:55.341Z,2.67
2022-10-19T21:13:21.852Z,2.47
2022-10-19T21:15:49.743Z,2.60
2022-10-19T21:18:16.287Z,2.67
2022-10-19T21:20:42.870Z,2.83
2022-10-19T21:23:09.375Z,2.67
2022-10-19T21:25:36.072Z,2.60
2022-10-19T21:28:02.569Z,2.78
2022-10-19T21:30:29.157Z,2.70
2022-10-19T21:32:57.114Z,3.17
2022-10-19T21:35:23.723Z,3.10
2022-10-19T21:37:50.256Z,3.08
2022-10-19T21:40:17.022Z,3.22
2022-10-19T21:42:43.512Z,3.50
2022-10-19T21:45:29.292Z,3.70
2022-10-19T21:47:57.972Z,3.88
2022-10-19T21:50:24.510Z,4.47
2022-10-19T21:52:50.999Z,4.13
2022-10-19T21:55:17.522Z,4.57
2022-10-19T21:57:45.276Z,4.37
2022-10-19T22:00:12.928Z,4.70
2022-10-19T22:02:39.592Z,4.72
2022-10-19T22:05:08.384Z,4.80
2022-10-19T22:07:35.209Z,5.00
2022-10-19T22:10:01.852Z,4.50
2022-10-19T22:12:28.397Z,5.18
2022-10-19T22:14:54.907Z,5.15
2022-10-19T22:17:21.444Z,4.85
2022-10-19T22:19:49.469Z,5.78
2022-10-19T22:22:17.363Z,5.13
2022-10-19T22:24:44.098Z,4.97
2022-10-19T22:27:10.592Z,5.00
2022-10-19T22:29:37.214Z,5.30
2022-10-19T22:32:03.894Z,5.47
2022-10-19T22:34:30.408Z,5.17
2022-10-19T22:36:56.941Z,5.00
2022-10-19T22:39:27.743Z,5.40
2022-10-19T22:41:54.628Z,5.53
2022-10-19T22:44:21.300Z,5.20
2022-10-19T22:46:47.822Z,5.00
2022-10-19T22:49:14.440Z,5.15
2022-10-19T22:51:41.073Z,4.80
2022-10-19T22:54:07.583Z,4.95
2022-10-19T22:56:35.933Z,4.90
2022-10-19T22:59:04.920Z,5.23
2022-10-19T23:01:31.700Z,5.22
2022-10-19T23:03:58.827Z,5.15
2022-10-19T23:06:25.455Z,5.40
2022-10-19T23:08:52.582Z,4.80
2022-10-19T23:11:19.890Z,4.83
2022-10-19T23:13:47.883Z,4.88
2022-10-19T23:16:14.438Z,5.25
2022-10-19T23:18:41.514Z,4.85
2022-10-19T23:21:10.914Z,4.53
2022-10-19T23:23:37.527Z,5.30
2022-10-19T23:26:06.590Z,5.82
2022-10-19T23:28:34.510Z,5.40
2022-10-19T23:31:06.354Z,5.60
2022-10-19T23:33:33.656Z,5.95
2022-10-19T23:36:05.518Z,5.87
2022-10-19T23:38:32.072Z,5.88
2022-10-19T23:40:58.631Z,5.70
2022-10-19T23:43:25.473Z,5.60
2022-10-19T23:45:52.192Z,5.57
2022-10-19T23:48:20.286Z,4.63
2022-10-19T23:50:46.861Z,6.25
2022-10-19T23:53:13.388Z,5.85
2022-10-19T23:55:40.001Z,5.68
2022-10-19T23:58:06.560Z,6.32
